sensor_id;sensor_type;location;lat;lon;timestamp;pressure;altitude;pressure_sealevel;temperature;humidity
38718;BME280;24468;52.128;9.278;2023-01-29T00:02:19;102029.97;;;1.14;100.00
38718;BME280;24468;52.128;9.278;2023-01-29T00:04:45;102030.06;;;1.19;100.00
38718;BME280;24468;52.128;9.278;2023-01-29T00:07:10;102033.00;;;1.36;100.00
38718;BME280;24468;52.128;9.278;2023-01-29T00:09:36;102028.50;;;1.31;100.00
38718;BME280;24468;52.128;9.278;2023-01-29T00:12:01;102022.34;;;1.32;100.00
38718;BME280;24468;52.128;9.278;2023-01-29T00:14:27;102013.59;;;1.41;100.00
38718;BME280;24468;52.128;9.278;2023-01-29T00:16:53;102012.00;;;1.51;100.00
38718;BME280;24468;52.128;9.278;2023-01-29T00:19:19;102002.84;;;1.32;100.00
38718;BME280;24468;52.128;9.278;2023-01-29T00:21:44;102008.16;;;0.83;100.00
38718;BME280;24468;52.128;9.278;2023-01-29T00:24:11;101998.13;;;1.17;100.00
38718;BME280;24468;52.128;9.278;2023-01-29T00:26:37;102007.03;;;1.19;100.00
38718;BME280;24468;52.128;9.278;2023-01-29T00:29:06;101997.03;;;1.06;100.00
38718;BME280;24468;52.128;9.278;2023-01-29T00:31:32;102003.09;;;0.97;100.00
38718;BME280;24468;52.128;9.278;2023-01-29T00:33:58;101997.22;;;0.68;100.00
38718;BME280;24468;52.128;9.278;2023-01-29T00:36:25;102004.91;;;0.53;100.00
38718;BME280;24468;52.128;9.278;2023-01-29T00:38:58;101995.84;;;0.88;100.00
38718;BME280;24468;52.128;9.278;2023-01-29T00:41:31;101991.47;;;0.92;100.00
38718;BME280;24468;52.128;9.278;2023-01-29T00:44:16;101996.06;;;1.01;100.00
38718;BME280;24468;52.128;9.278;2023-01-29T00:47:01;102001.75;;;1.22;100.00
38718;BME280;24468;52.128;9.278;2023-01-29T00:49:26;101991.50;;;1.44;100.00
38718;BME280;24468;52.128;9.278;2023-01-29T00:51:52;102001.91;;;1.31;100.00
38718;BME280;24468;52.128;9.278;2023-01-29T00:54:36;101995.91;;;1.43;100.00
38718;BME280;24468;52.128;9.278;2023-01-29T00:57:03;101998.44;;;1.36;100.00
38718;BME280;24468;52.128;9.278;2023-01-29T00:59:29;101994.91;;;1.37;100.00
38718;BME280;24468;52.128;9.278;2023-01-29T01:01:55;101997.84;;;1.53;100.00
38718;BME280;24468;52.128;9.278;2023-01-29T01:04:39;102001.34;;;1.49;100.00
38718;BME280;24468;52.128;9.278;2023-01-29T01:07:05;101997.69;;;1.44;100.00
38718;BME280;24468;52.128;9.278;2023-01-29T01:09:34;102010.09;;;1.44;100.00
38718;BME280;24468;52.128;9.278;2023-01-29T01:12:18;101997.75;;;1.46;100.00
38718;BME280;24468;52.128;9.278;2023-01-29T01:14:44;102005.84;;;1.55;100.00
38718;BME280;24468;52.128;9.278;2023-01-29T01:17:10;101988.22;;;1.60;100.00
38718;BME280;24468;52.128;9.278;2023-01-29T01:19:35;101972.38;;;1.68;100.00
38718;BME280;24468;52.128;9.278;2023-01-29T01:22:01;101975.88;;;1.67;100.00
38718;BME280;24468;52.128;9.278;2023-01-29T01:24:29;101978.94;;;1.37;100.00
38718;BME280;24468;52.128;9.278;2023-01-29T01:26:55;101975.72;;;1.56;100.00
38718;BME280;24468;52.128;9.278;2023-01-29T01:29:20;101977.44;;;1.52;100.00
38718;BME280;24468;52.128;9.278;2023-01-29T01:31:46;101977.25;;;1.40;100.00
38718;BME280;24468;52.128;9.278;2023-01-29T01:34:11;101969.03;;;1.25;100.00
38718;BME280;24468;52.128;9.278;2023-01-29T01:36:37;101966.19;;;1.14;100.00
38718;BME280;24468;52.128;9.278;2023-01-29T01:39:02;101955.63;;;1.20;100.00
38718;BME280;24468;52.128;9.278;2023-01-29T01:41:29;101966.13;;;1.11;100.00
38718;BME280;24468;52.128;9.278;2023-01-29T01:43:59;101959.94;;;1.12;100.00
38718;BME280;24468;52.128;9.278;2023-01-29T01:46:32;101961.09;;;1.26;100.00
38718;BME280;24468;52.128;9.278;2023-01-29T01:49:12;101963.88;;;1.37;100.00
38718;BME280;24468;52.128;9.278;2023-01-29T01:51:46;101957.84;;;1.46;100.00
38718;BME280;24468;52.128;9.278;2023-01-29T01:54:23;101953.28;;;1.39;100.00
38718;BME280;24468;52.128;9.278;2023-01-29T01:56:56;101945.56;;;1.54;100.00
38718;BME280;24468;52.128;9.278;2023-01-29T01:59:38;101952.31;;;1.32;100.00
38718;BME280;24468;52.128;9.278;2023-01-29T02:02:05;101954.38;;;1.51;100.00
38718;BME280;24468;52.128;9.278;2023-01-29T02:04:49;101945.47;;;1.49;100.00
38718;BME280;24468;52.128;9.278;2023-01-29T02:07:35;101943.72;;;1.48;100.00
38718;BME280;24468;52.128;9.278;2023-01-29T02:10:23;101954.34;;;1.48;100.00
38718;BME280;24468;52.128;9.278;2023-01-29T02:12:49;101949.28;;;1.65;100.00
38718;BME280;24468;52.128;9.278;2023-01-29T02:15:15;101950.97;;;1.60;100.00
38718;BME280;24468;52.128;9.278;2023-01-29T02:17:41;101957.84;;;1.46;100.00
38718;BME280;24468;52.128;9.278;2023-01-29T02:20:24;101952.69;;;1.57;100.00
38718;BME280;24468;52.128;9.278;2023-01-29T02:25:58;101954.50;;;1.59;100.00
38718;BME280;24468;52.128;9.278;2023-01-29T02:29:06;101960.50;;;1.46;100.00
38718;BME280;24468;52.128;9.278;2023-01-29T02:32:10;101952.06;;;1.73;100.00
38718;BME280;24468;52.128;9.278;2023-01-29T02:37:38;101968.94;;;1.19;100.00
38718;BME280;24468;52.128;9.278;2023-01-29T02:40:15;101965.38;;;1.18;100.00
38718;BME280;24468;52.128;9.278;2023-01-29T02:42:55;101969.09;;;1.29;100.00
38718;BME280;24468;52.128;9.278;2023-01-29T02:48:38;101971.75;;;1.29;100.00
38718;BME280;24468;52.128;9.278;2023-01-29T02:51:13;101985.53;;;1.05;100.00
38718;BME280;24468;52.128;9.278;2023-01-29T02:56:27;101994.38;;;1.06;100.00
38718;BME280;24468;52.128;9.278;2023-01-29T02:59:04;101983.34;;;0.84;100.00
38718;BME280;24468;52.128;9.278;2023-01-29T03:01:37;101983.84;;;1.12;100.00
38718;BME280;24468;52.128;9.278;2023-01-29T03:04:13;101986.97;;;1.38;100.00
38718;BME280;24468;52.128;9.278;2023-01-29T03:06:45;101978.25;;;1.47;100.00
38718;BME280;24468;52.128;9.278;2023-01-29T03:12:09;101971.81;;;1.34;100.00
38718;BME280;24468;52.128;9.278;2023-01-29T03:14:52;101965.88;;;1.50;100.00
38718;BME280;24468;52.128;9.278;2023-01-29T03:17:54;101959.84;;;1.61;100.00
38718;BME280;24468;52.128;9.278;2023-01-29T03:20:28;101951.91;;;1.62;100.00
38718;BME280;24468;52.128;9.278;2023-01-29T03:23:06;101954.91;;;1.87;100.00
38718;BME280;24468;52.128;9.278;2023-01-29T03:25:35;101947.00;;;1.94;100.00
38718;BME280;24468;52.128;9.278;2023-01-29T03:28:21;101948.84;;;2.00;100.00
38718;BME280;24468;52.128;9.278;2023-01-29T03:31:09;101944.47;;;2.04;100.00
38718;BME280;24468;52.128;9.278;2023-01-29T03:34:12;101952.06;;;1.73;100.00
38718;BME280;24468;52.128;9.278;2023-01-29T03:37:02;101946.53;;;1.59;100.00
38718;BME280;24468;52.128;9.278;2023-01-29T03:39:32;101951.22;;;1.77;100.00
38718;BME280;24468;52.128;9.278;2023-01-29T03:44:31;101932.53;;;1.75;100.00
38718;BME280;24468;52.128;9.278;2023-01-29T03:47:09;101932.97;;;2.06;100.00
38718;BME280;24468;52.128;9.278;2023-01-29T03:56:48;101929.03;;;1.78;100.00
38718;BME280;24468;52.128;9.278;2023-01-29T04:01:54;101914.03;;;1.82;100.00
38718;BME280;24468;52.128;9.278;2023-01-29T04:04:33;101916.03;;;1.98;100.00
38718;BME280;24468;52.128;9.278;2023-01-29T04:07:13;101912.53;;;2.05;100.00
38718;BME280;24468;52.128;9.278;2023-01-29T04:10:15;101906.31;;;2.03;100.00
38718;BME280;24468;52.128;9.278;2023-01-29T04:13:00;101897.56;;;2.13;100.00
38718;BME280;24468;52.128;9.278;2023-01-29T04:15:31;101895.63;;;2.00;100.00
38718;BME280;24468;52.128;9.278;2023-01-29T04:17:59;101905.41;;;2.01;100.00
38718;BME280;24468;52.128;9.278;2023-01-29T04:20:25;101882.25;;;1.94;100.00
38718;BME280;24468;52.128;9.278;2023-01-29T04:22:51;101884.25;;;2.13;100.00
38718;BME280;24468;52.128;9.278;2023-01-29T04:25:31;101877.28;;;2.23;100.00
38718;BME280;24468;52.128;9.278;2023-01-29T04:31:22;101869.00;;;2.00;100.00
38718;BME280;24468;52.128;9.278;2023-01-29T04:34:06;101860.09;;;1.95;100.00
38718;BME280;24468;52.128;9.278;2023-01-29T04:37:11;101841.75;;;2.19;100.00
38718;BME280;24468;52.128;9.278;2023-01-29T04:39:48;101828.44;;;2.19;100.00
38718;BME280;24468;52.128;9.278;2023-01-29T04:48:50;101830.06;;;2.08;100.00
38718;BME280;24468;52.128;9.278;2023-01-29T04:54:15;101832.00;;;2.23;100.00
38718;BME280;24468;52.128;9.278;2023-01-29T04:59:16;101817.94;;;2.38;100.00
38718;BME280;24468;52.128;9.278;2023-01-29T05:01:45;101818.88;;;2.43;100.00
38718;BME280;24468;52.128;9.278;2023-01-29T05:04:14;101816.75;;;2.08;100.00
38718;BME280;24468;52.128;9.278;2023-01-29T05:06:40;101827.44;;;2.13;100.00
38718;BME280;24468;52.128;9.278;2023-01-29T05:09:07;101817.09;;;2.42;100.00
38718;BME280;24468;52.128;9.278;2023-01-29T05:11:34;101818.00;;;2.42;100.00
38718;BME280;24468;52.128;9.278;2023-01-29T05:14:04;101823.38;;;2.47;100.00
38718;BME280;24468;52.128;9.278;2023-01-29T05:16:37;101819.88;;;2.53;100.00
38718;BME280;24468;52.128;9.278;2023-01-29T05:19:09;101816.28;;;2.51;100.00
38718;BME280;24468;52.128;9.278;2023-01-29T05:21:36;101818.06;;;2.52;100.00
38718;BME280;24468;52.128;9.278;2023-01-29T05:24:13;101832.16;;;2.40;100.00
38718;BME280;24468;52.128;9.278;2023-01-29T05:26:46;101832.91;;;2.27;100.00
38718;BME280;24468;52.128;9.278;2023-01-29T05:29:30;101842.78;;;2.37;100.00
38718;BME280;24468;52.128;9.278;2023-01-29T05:31:56;101841.78;;;2.24;100.00
38718;BME280;24468;52.128;9.278;2023-01-29T05:34:21;101834.41;;;2.00;100.00
38718;BME280;24468;52.128;9.278;2023-01-29T05:36:47;101835.50;;;2.17;100.00
38718;BME280;24468;52.128;9.278;2023-01-29T05:39:12;101840.00;;;2.23;100.00
38718;BME280;24468;52.128;9.278;2023-01-29T05:41:38;101837.50;;;2.40;100.00
38718;BME280;24468;52.128;9.278;2023-01-29T05:44:04;101839.88;;;2.12;100.00
38718;BME280;24468;52.128;9.278;2023-01-29T05:46:29;101846.81;;;1.98;100.00
38718;BME280;24468;52.128;9.278;2023-01-29T05:48:55;101846.38;;;1.64;100.00
38718;BME280;24468;52.128;9.278;2023-01-29T05:51:20;101851.22;;;1.96;100.00
38718;BME280;24468;52.128;9.278;2023-01-29T05:53:46;101870.81;;;2.01;100.00
38718;BME280;24468;52.128;9.278;2023-01-29T05:56:11;101871.00;;;2.18;100.00
38718;BME280;24468;52.128;9.278;2023-01-29T05:58:37;101863.94;;;2.20;100.00
38718;BME280;24468;52.128;9.278;2023-01-29T06:03:39;101856.75;;;2.14;100.00
38718;BME280;24468;52.128;9.278;2023-01-29T06:06:05;101856.13;;;2.37;100.00
38718;BME280;24468;52.128;9.278;2023-01-29T06:08:31;101860.25;;;2.10;100.00
38718;BME280;24468;52.128;9.278;2023-01-29T06:10:56;101864.50;;;1.93;100.00
38718;BME280;24468;52.128;9.278;2023-01-29T06:13:22;101877.66;;;1.82;100.00
38718;BME280;24468;52.128;9.278;2023-01-29T06:15:47;101880.41;;;1.87;100.00
38718;BME280;24468;52.128;9.278;2023-01-29T06:18:13;101869.06;;;2.03;100.00
38718;BME280;24468;52.128;9.278;2023-01-29T06:20:38;101865.03;;;2.39;100.00
38718;BME280;24468;52.128;9.278;2023-01-29T06:23:04;101866.06;;;2.56;100.00
38718;BME280;24468;52.128;9.278;2023-01-29T06:25:30;101864.28;;;2.57;100.00
38718;BME280;24468;52.128;9.278;2023-01-29T06:27:55;101864.03;;;2.32;100.00
38718;BME280;24468;52.128;9.278;2023-01-29T06:30:21;101861.22;;;2.18;100.00
38718;BME280;24468;52.128;9.278;2023-01-29T06:32:46;101865.53;;;2.07;100.00
38718;BME280;24468;52.128;9.278;2023-01-29T06:35:12;101861.31;;;1.53;100.00
38718;BME280;24468;52.128;9.278;2023-01-29T06:37:38;101852.69;;;1.71;100.00
38718;BME280;24468;52.128;9.278;2023-01-29T06:40:04;101863.34;;;1.72;100.00
38718;BME280;24468;52.128;9.278;2023-01-29T06:42:30;101850.88;;;1.70;100.00
38718;BME280;24468;52.128;9.278;2023-01-29T06:44:55;101854.81;;;1.32;100.00
38718;BME280;24468;52.128;9.278;2023-01-29T06:47:22;101867.56;;;1.57;100.00
38718;BME280;24468;52.128;9.278;2023-01-29T06:49:48;101861.69;;;1.82;100.00
38718;BME280;24468;52.128;9.278;2023-01-29T06:52:14;101867.44;;;1.46;100.00
38718;BME280;24468;52.128;9.278;2023-01-29T06:54:40;101856.84;;;1.49;100.00
38718;BME280;24468;52.128;9.278;2023-01-29T06:57:05;101848.94;;;1.55;100.00
38718;BME280;24468;52.128;9.278;2023-01-29T06:59:31;101857.63;;;1.45;100.00
38718;BME280;24468;52.128;9.278;2023-01-29T07:01:56;101867.28;;;1.35;100.00
38718;BME280;24468;52.128;9.278;2023-01-29T07:04:22;101872.97;;;1.63;100.00
38718;BME280;24468;52.128;9.278;2023-01-29T07:06:47;101865.72;;;1.52;100.00
38718;BME280;24468;52.128;9.278;2023-01-29T07:09:13;101882.53;;;1.50;100.00
38718;BME280;24468;52.128;9.278;2023-01-29T07:11:39;101886.53;;;1.83;100.00
38718;BME280;24468;52.128;9.278;2023-01-29T07:14:05;101880.44;;;1.90;100.00
38718;BME280;24468;52.128;9.278;2023-01-29T07:16:31;101885.72;;;1.87;100.00
38718;BME280;24468;52.128;9.278;2023-01-29T07:18:57;101886.03;;;2.11;100.00
38718;BME280;24468;52.128;9.278;2023-01-29T07:21:23;101884.97;;;2.00;100.00
38718;BME280;24468;52.128;9.278;2023-01-29T07:23:49;101886.63;;;1.90;100.00
38718;BME280;24468;52.128;9.278;2023-01-29T07:26:15;101889.53;;;2.10;100.00
38718;BME280;24468;52.128;9.278;2023-01-29T07:28:41;101873.41;;;1.95;100.00
38718;BME280;24468;52.128;9.278;2023-01-29T07:31:07;101873.97;;;1.72;100.00
38718;BME280;24468;52.128;9.278;2023-01-29T07:33:34;101877.66;;;1.82;100.00
38718;BME280;24468;52.128;9.278;2023-01-29T07:36:00;101881.13;;;1.76;100.00
38718;BME280;24468;52.128;9.278;2023-01-29T07:38:25;101887.28;;;1.71;100.00
38718;BME280;24468;52.128;9.278;2023-01-29T07:40:52;101895.63;;;1.35;100.00
38718;BME280;24468;52.128;9.278;2023-01-29T07:43:17;101886.72;;;1.32;100.00
38718;BME280;24468;52.128;9.278;2023-01-29T07:45:43;101859.28;;;1.37;100.00
38718;BME280;24468;52.128;9.278;2023-01-29T07:48:11;101850.69;;;1.54;100.00
38718;BME280;24468;52.128;9.278;2023-01-29T07:50:38;101844.91;;;1.22;100.00
38718;BME280;24468;52.128;9.278;2023-01-29T07:53:04;101854.00;;;1.40;100.00
38718;BME280;24468;52.128;9.278;2023-01-29T07:55:30;101858.94;;;1.10;100.00
38718;BME280;24468;52.128;9.278;2023-01-29T07:58:01;101867.91;;;1.19;100.00
38718;BME280;24468;52.128;9.278;2023-01-29T08:00:29;101860.34;;;1.48;100.00
38718;BME280;24468;52.128;9.278;2023-01-29T08:03:04;101845.22;;;1.44;100.00
38718;BME280;24468;52.128;9.278;2023-01-29T08:05:30;101824.03;;;1.50;100.00
38718;BME280;24468;52.128;9.278;2023-01-29T08:07:56;101843.03;;;1.15;100.00
38718;BME280;24468;52.128;9.278;2023-01-29T08:10:21;101830.00;;;1.33;100.00
38718;BME280;24468;52.128;9.278;2023-01-29T08:12:55;101824.16;;;1.59;100.00
38718;BME280;24468;52.128;9.278;2023-01-29T08:15:21;101816.09;;;1.51;100.00
38718;BME280;24468;52.128;9.278;2023-01-29T08:17:48;101801.66;;;1.34;100.00
38718;BME280;24468;52.128;9.278;2023-01-29T08:20:14;101805.66;;;1.68;100.00
38718;BME280;24468;52.128;9.278;2023-01-29T08:22:39;101819.97;;;1.80;100.00
38718;BME280;24468;52.128;9.278;2023-01-29T08:25:05;101813.75;;;1.77;100.00
38718;BME280;24468;52.128;9.278;2023-01-29T08:27:31;101819.16;;;1.85;100.00
38718;BME280;24468;52.128;9.278;2023-01-29T08:29:56;101812.59;;;1.57;100.00
38718;BME280;24468;52.128;9.278;2023-01-29T08:32:22;101817.16;;;1.67;100.00
38718;BME280;24468;52.128;9.278;2023-01-29T08:34:47;101812.53;;;1.51;100.00
38718;BME280;24468;52.128;9.278;2023-01-29T08:37:13;101817.81;;;1.49;100.00
38718;BME280;24468;52.128;9.278;2023-01-29T08:39:38;101817.97;;;1.60;100.00
38718;BME280;24468;52.128;9.278;2023-01-29T08:42:04;101823.50;;;1.77;100.00
38718;BME280;24468;52.128;9.278;2023-01-29T08:44:29;101822.72;;;1.89;100.00
38718;BME280;24468;52.128;9.278;2023-01-29T08:46:55;101814.75;;;1.87;100.00
38718;BME280;24468;52.128;9.278;2023-01-29T08:49:20;101804.41;;;2.15;100.00
38718;BME280;24468;52.128;9.278;2023-01-29T08:51:46;101802.72;;;2.23;100.00
38718;BME280;24468;52.128;9.278;2023-01-29T08:54:11;101809.06;;;2.37;100.00
38718;BME280;24468;52.128;9.278;2023-01-29T08:56:37;101814.44;;;2.43;100.00
38718;BME280;24468;52.128;9.278;2023-01-29T08:59:02;101811.00;;;2.54;100.00
38718;BME280;24468;52.128;9.278;2023-01-29T09:01:28;101809.13;;;2.43;100.00
38718;BME280;24468;52.128;9.278;2023-01-29T09:03:53;101802.81;;;2.34;100.00
38718;BME280;24468;52.128;9.278;2023-01-29T09:06:19;101804.88;;;2.64;100.00
38718;BME280;24468;52.128;9.278;2023-01-29T09:08:44;101802.56;;;3.10;100.00
38718;BME280;24468;52.128;9.278;2023-01-29T09:11:10;101805.06;;;2.93;100.00
38718;BME280;24468;52.128;9.278;2023-01-29T09:13:36;101802.50;;;3.02;100.00
38718;BME280;24468;52.128;9.278;2023-01-29T09:16:02;101791.63;;;2.72;100.00
38718;BME280;24468;52.128;9.278;2023-01-29T09:18:29;101801.44;;;2.80;100.00
38718;BME280;24468;52.128;9.278;2023-01-29T09:20:55;101800.66;;;2.94;100.00
38718;BME280;24468;52.128;9.278;2023-01-29T09:23:21;101794.50;;;3.07;100.00
38718;BME280;24468;52.128;9.278;2023-01-29T09:25:47;101794.44;;;2.96;100.00
38718;BME280;24468;52.128;9.278;2023-01-29T09:28:13;101798.69;;;2.71;100.00
38718;BME280;24468;52.128;9.278;2023-01-29T09:30:38;101805.72;;;2.63;100.00
38718;BME280;24468;52.128;9.278;2023-01-29T09:33:05;101798.03;;;3.04;100.00
38718;BME280;24468;52.128;9.278;2023-01-29T09:35:31;101796.22;;;2.96;100.00
38718;BME280;24468;52.128;9.278;2023-01-29T09:37:57;101781.72;;;2.60;100.00
38718;BME280;24468;52.128;9.278;2023-01-29T09:43:41;101784.47;;;2.67;100.00
38718;BME280;24468;52.128;9.278;2023-01-29T09:46:43;101781.59;;;2.43;100.00
38718;BME280;24468;52.128;9.278;2023-01-29T09:49:27;101774.38;;;2.30;100.00
38718;BME280;24468;52.128;9.278;2023-01-29T09:52:01;101754.63;;;2.06;100.00
38718;BME280;24468;52.128;9.278;2023-01-29T09:57:21;101758.59;;;2.53;100.00
38718;BME280;24468;52.128;9.278;2023-01-29T09:59:49;101763.84;;;2.47;100.00
38718;BME280;24468;52.128;9.278;2023-01-29T10:06:28;101748.94;;;2.67;100.00
38718;BME280;24468;52.128;9.278;2023-01-29T10:12:11;101745.41;;;2.70;100.00
38718;BME280;24468;52.128;9.278;2023-01-29T10:20:42;101723.44;;;3.15;100.00
38718;BME280;24468;52.128;9.278;2023-01-29T10:24:20;101716.00;;;2.57;100.00
38718;BME280;24468;52.128;9.278;2023-01-29T10:26:39;101705.34;;;2.60;100.00
38718;BME280;24468;52.128;9.278;2023-01-29T10:29:06;101698.19;;;2.50;100.00
38718;BME280;24468;52.128;9.278;2023-01-29T10:31:38;101708.94;;;2.61;100.00
38718;BME280;24468;52.128;9.278;2023-01-29T10:34:26;101707.91;;;2.47;100.00
38718;BME280;24468;52.128;9.278;2023-01-29T10:36:54;101710.34;;;2.14;100.00
38718;BME280;24468;52.128;9.278;2023-01-29T10:39:23;101710.41;;;2.23;100.00
38718;BME280;24468;52.128;9.278;2023-01-29T10:50:46;101717.88;;;2.71;100.00
38718;BME280;24468;52.128;9.278;2023-01-29T10:56:11;101713.59;;;2.94;100.00
38718;BME280;24468;52.128;9.278;2023-01-29T10:58:54;101717.16;;;2.98;100.00
38718;BME280;24468;52.128;9.278;2023-01-29T11:01:23;101710.06;;;3.03;100.00
38718;BME280;24468;52.128;9.278;2023-01-29T11:04:00;101697.53;;;2.83;100.00
38718;BME280;24468;52.128;9.278;2023-01-29T11:06:35;101691.97;;;2.51;100.00
38718;BME280;24468;52.128;9.278;2023-01-29T11:12:19;101683.34;;;2.89;100.00
38718;BME280;24468;52.128;9.278;2023-01-29T11:14:57;101668.16;;;2.79;100.00
38718;BME280;24468;52.128;9.278;2023-01-29T11:17:26;101674.44;;;2.84;100.00
38718;BME280;24468;52.128;9.278;2023-01-29T11:19:53;101663.53;;;2.49;100.00
38718;BME280;24468;52.128;9.278;2023-01-29T11:22:25;101657.41;;;2.62;100.00
38718;BME280;24468;52.128;9.278;2023-01-29T11:25:19;101642.19;;;2.41;100.00
38718;BME280;24468;52.128;9.278;2023-01-29T11:27:46;101646.88;;;2.83;100.00
38718;BME280;24468;52.128;9.278;2023-01-29T11:33:22;101637.00;;;2.62;100.00
38718;BME280;24468;52.128;9.278;2023-01-29T11:35:49;101633.28;;;2.37;100.00
38718;BME280;24468;52.128;9.278;2023-01-29T11:38:28;101635.13;;;2.46;100.00
38718;BME280;24468;52.128;9.278;2023-01-29T11:41:17;101634.19;;;2.38;100.00
38718;BME280;24468;52.128;9.278;2023-01-29T11:43:43;101631.34;;;2.15;100.00
38718;BME280;24468;52.128;9.278;2023-01-29T11:46:14;101636.81;;;2.32;100.00
38718;BME280;24468;52.128;9.278;2023-01-29T11:48:48;101621.16;;;2.93;100.00
38718;BME280;24468;52.128;9.278;2023-01-29T11:51:26;101626.44;;;2.82;100.00
38718;BME280;24468;52.128;9.278;2023-01-29T11:53:56;101623.66;;;2.62;100.00
38718;BME280;24468;52.128;9.278;2023-01-29T11:56:34;101617.53;;;2.79;100.00
38718;BME280;24468;52.128;9.278;2023-01-29T11:59:03;101608.69;;;2.83;100.00
38718;BME280;24468;52.128;9.278;2023-01-29T12:01:35;101602.44;;;2.78;100.00
38718;BME280;24468;52.128;9.278;2023-01-29T12:04:02;101597.84;;;2.52;100.00
38718;BME280;24468;52.128;9.278;2023-01-29T12:06:35;101609.28;;;2.33;100.00
38718;BME280;24468;52.128;9.278;2023-01-29T12:09:15;101603.19;;;2.51;100.00
38718;BME280;24468;52.128;9.278;2023-01-29T12:11:42;101598.75;;;2.54;100.00
38718;BME280;24468;52.128;9.278;2023-01-29T12:14:28;101601.38;;;2.42;100.00
38718;BME280;24468;52.128;9.278;2023-01-29T12:17:09;101590.72;;;2.45;100.00
38718;BME280;24468;52.128;9.278;2023-01-29T12:19:50;101596.03;;;2.39;100.00
38718;BME280;24468;52.128;9.278;2023-01-29T12:34:48;101548.97;;;2.39;100.00
38718;BME280;24468;52.128;9.278;2023-01-29T12:37:31;101526.84;;;2.54;100.00
38718;BME280;24468;52.128;9.278;2023-01-29T12:40:01;101530.44;;;2.67;100.00
38718;BME280;24468;52.128;9.278;2023-01-29T12:42:27;101521.47;;;2.47;100.00
38718;BME280;24468;52.128;9.278;2023-01-29T12:45:05;101523.25;;;2.41;100.00
38718;BME280;24468;52.128;9.278;2023-01-29T12:47:37;101524.94;;;2.27;100.00
38718;BME280;24468;52.128;9.278;2023-01-29T12:50:16;101505.47;;;2.37;100.00
38718;BME280;24468;52.128;9.278;2023-01-29T12:52:57;101509.97;;;2.54;100.00
38718;BME280;24468;52.128;9.278;2023-01-29T12:55:47;101514.53;;;2.85;100.00
38718;BME280;24468;52.128;9.278;2023-01-29T12:58:33;101508.25;;;2.68;100.00
38718;BME280;24468;52.128;9.278;2023-01-29T13:01:11;101505.63;;;2.77;100.00
38718;BME280;24468;52.128;9.278;2023-01-29T13:03:50;101511.75;;;2.56;100.00
38718;BME280;24468;52.128;9.278;2023-01-29T13:06:35;101509.88;;;2.32;100.00
38718;BME280;24468;52.128;9.278;2023-01-29T13:09:12;101515.22;;;2.35;100.00
38718;BME280;24468;52.128;9.278;2023-01-29T13:12:06;101517.19;;;2.81;100.00
38718;BME280;24468;52.128;9.278;2023-01-29T13:14:56;101521.59;;;2.82;100.00
38718;BME280;24468;52.128;9.278;2023-01-29T13:17:53;101504.78;;;2.97;100.00
38718;BME280;24468;52.128;9.278;2023-01-29T13:20:29;101517.22;;;2.98;100.00
38718;BME280;24468;52.128;9.278;2023-01-29T13:23:05;101504.81;;;3.29;100.00
38718;BME280;24468;52.128;9.278;2023-01-29T13:25:37;101495.03;;;3.28;100.00
38718;BME280;24468;52.128;9.278;2023-01-29T13:28:02;101495.91;;;3.18;100.00
38718;BME280;24468;52.128;9.278;2023-01-29T13:30:33;101487.00;;;3.12;100.00
38718;BME280;24468;52.128;9.278;2023-01-29T13:33:03;101487.94;;;3.56;100.00
38718;BME280;24468;52.128;9.278;2023-01-29T13:35:41;101491.50;;;3.50;100.00
38718;BME280;24468;52.128;9.278;2023-01-29T13:38:28;101490.59;;;3.47;100.00
38718;BME280;24468;52.128;9.278;2023-01-29T13:41:05;101490.59;;;3.13;100.00
38718;BME280;24468;52.128;9.278;2023-01-29T13:43:39;101483.47;;;3.26;100.00
38718;BME280;24468;52.128;9.278;2023-01-29T13:46:12;101473.69;;;3.34;100.00
38718;BME280;24468;52.128;9.278;2023-01-29T13:48:45;101488.78;;;2.97;100.00
38718;BME280;24468;52.128;9.278;2023-01-29T13:51:15;101476.38;;;3.16;100.00
38718;BME280;24468;52.128;9.278;2023-01-29T13:53:53;101474.63;;;3.27;100.00
38718;BME280;24468;52.128;9.278;2023-01-29T13:58:59;101462.13;;;3.04;100.00
38718;BME280;24468;52.128;9.278;2023-01-29T14:07:46;101443.41;;;2.67;100.00
38718;BME280;24468;52.128;9.278;2023-01-29T14:10:22;101462.13;;;2.98;100.00
38718;BME280;24468;52.128;9.278;2023-01-29T14:18:26;101437.25;;;2.99;100.00
38718;BME280;24468;52.128;9.278;2023-01-29T14:20:55;101440.81;;;3.09;100.00
38718;BME280;24468;52.128;9.278;2023-01-29T14:23:29;101434.56;;;2.84;100.00
38718;BME280;24468;52.128;9.278;2023-01-29T14:25:57;101430.13;;;2.86;100.00
38718;BME280;24468;52.128;9.278;2023-01-29T14:28:27;101431.03;;;3.03;100.00
38718;BME280;24468;52.128;9.278;2023-01-29T14:30:54;101437.22;;;2.82;100.00
38718;BME280;24468;52.128;9.278;2023-01-29T14:33:38;101447.88;;;2.72;100.00
38718;BME280;24468;52.128;9.278;2023-01-29T14:36:12;101439.03;;;3.03;100.00
38718;BME280;24468;52.128;9.278;2023-01-29T14:38:46;101436.34;;;2.99;100.00
38718;BME280;24468;52.128;9.278;2023-01-29T14:41:28;101438.16;;;3.00;100.00
38718;BME280;24468;52.128;9.278;2023-01-29T14:44:45;101432.81;;;2.83;100.00
38718;BME280;24468;52.128;9.278;2023-01-29T14:47:24;101446.13;;;2.89;100.00
38718;BME280;24468;52.128;9.278;2023-01-29T14:55:51;101419.38;;;2.41;100.00
38718;BME280;24468;52.128;9.278;2023-01-29T15:00:53;101425.53;;;2.30;100.00
38718;BME280;24468;52.128;9.278;2023-01-29T15:04:06;101428.25;;;2.43;100.00
38718;BME280;24468;52.128;9.278;2023-01-29T15:06:50;101407.81;;;2.36;100.00
38718;BME280;24468;52.128;9.278;2023-01-29T15:09:51;101408.66;;;2.21;100.00
38718;BME280;24468;52.128;9.278;2023-01-29T15:13:02;101419.31;;;2.26;100.00
38718;BME280;24468;52.128;9.278;2023-01-29T15:15:42;101416.50;;;1.91;100.00